Time;durP1;ratioP1;P1;durP2;ratioP2;P2;SDS_P1;SDS_P2;PMS_P1;PMS_P2;Temp;Humidity;BMP_temperature;BMP_pressure;BME280_temperature;BME280_humidity;BME280_pressure;Samples;Min_cycle;Max_cycle;Signal;HPM_P1;HPM_P2
2021/05/15 00:02:12;;;;;;;15.45;9.82;;;10.00;93.10;;;;;;5056456;28;20511;-72
2021/05/15 00:04:38;;;;;;;14.68;9.75;;;10.00;93.00;;;;;;5056499;28;20040;-72
2021/05/15 00:07:04;;;;;;;15.07;10.23;;;10.00;93.00;;;;;;5056057;28;20409;-72
2021/05/15 00:09:30;;;;;;;20.85;10.13;;;10.00;93.00;;;;;;5056497;28;20493;-72
2021/05/15 00:11:55;;;;;;;15.77;9.75;;;10.10;93.00;;;;;;5056360;28;20124;-72
2021/05/15 00:14:22;;;;;;;17.48;9.63;;;10.10;93.00;;;;;;5055894;28;20491;-72
2021/05/15 00:16:47;;;;;;;11.95;8.45;;;10.10;93.00;;;;;;5056255;28;20037;-72
2021/05/15 00:19:13;;;;;;;14.00;8.40;;;10.10;93.10;;;;;;5056234;28;20877;-72
2021/05/15 00:21:39;;;;;;;13.38;8.93;;;10.00;93.10;;;;;;5055996;28;20388;-72
2021/05/15 00:24:05;;;;;;;15.20;9.50;;;10.10;93.10;;;;;;5056026;28;20117;-72
2021/05/15 00:26:32;;;;;;;12.70;8.00;;;10.00;92.90;;;;;;5055518;28;20124;-72
2021/05/15 00:28:57;;;;;;;12.85;9.27;;;10.10;92.90;;;;;;5055715;28;20037;-72
2021/05/15 00:31:23;;;;;;;14.15;8.75;;;10.00;92.90;;;;;;5056267;28;20044;-72
2021/05/15 00:33:49;;;;;;;15.05;8.80;;;10.00;93.10;;;;;;5056208;28;20040;-72
2021/05/15 00:36:15;;;;;;;13.85;9.13;;;10.00;93.00;;;;;;5055212;28;20041;-72
2021/05/15 00:38:40;;;;;;;13.90;8.18;;;10.00;93.10;;;;;;5055743;28;20527;-72
2021/05/15 00:41:06;;;;;;;10.93;7.88;;;10.00;92.90;;;;;;5055850;28;20515;-72
2021/05/15 00:43:32;;;;;;;14.65;8.55;;;10.00;92.90;;;;;;5056161;28;20442;-72
2021/05/15 00:45:58;;;;;;;13.32;8.77;;;10.00;92.90;;;;;;5054987;28;20508;-72
2021/05/15 00:48:24;;;;;;;13.00;8.32;;;10.00;92.90;;;;;;5055950;28;20080;-72
2021/05/15 00:50:50;;;;;;;17.25;9.52;;;9.90;92.70;;;;;;5055228;28;20045;-72
2021/05/15 00:53:18;;;;;;;16.60;8.38;;;9.90;92.80;;;;;;5055788;28;20055;-72
2021/05/15 00:55:45;;;;;;;13.00;8.27;;;9.90;92.80;;;;;;5054928;28;20037;-72
2021/05/15 00:58:10;;;;;;;16.23;9.32;;;9.80;92.70;;;;;;5055022;28;20040;-72
2021/05/15 01:00:36;;;;;;;14.57;8.15;;;9.80;92.60;;;;;;5055228;28;20488;-72
2021/05/15 01:03:02;;;;;;;12.23;7.65;;;9.70;92.70;;;;;;5055513;28;20116;-72
2021/05/15 01:05:28;;;;;;;13.93;8.90;;;9.70;92.80;;;;;;5054905;28;20477;-72
2021/05/15 01:07:54;;;;;;;13.02;8.57;;;9.60;92.80;;;;;;5054957;28;20112;-72
2021/05/15 01:10:20;;;;;;;14.20;8.93;;;9.60;92.90;;;;;;5055141;28;20116;-72
2021/05/15 01:12:55;;;;;;;13.90;9.18;;;9.60;93.00;;;;;;5054975;28;20037;-72
2021/05/15 01:15:23;;;;;;;11.93;8.23;;;9.50;93.00;;;;;;5054856;28;20037;-72
2021/05/15 01:17:54;;;;;;;12.27;8.52;;;9.50;93.10;;;;;;5055285;28;20457;-72
2021/05/15 01:20:22;;;;;;;14.77;7.88;;;9.50;93.20;;;;;;5054969;28;20051;-72
2021/05/15 01:22:48;;;;;;;12.60;7.65;;;9.50;93.20;;;;;;5054851;28;20401;-72
2021/05/15 01:25:15;;;;;;;12.38;7.80;;;9.50;93.30;;;;;;5054344;28;20037;-72
2021/05/15 01:27:41;;;;;;;10.45;7.40;;;9.60;93.30;;;;;;5055246;28;20366;-72
2021/05/15 01:30:09;;;;;;;15.00;9.23;;;9.50;93.10;;;;;;5055310;28;20067;-72
2021/05/15 01:32:40;;;;;;;11.57;7.93;;;9.40;93.10;;;;;;5054501;28;20071;-72
2021/05/15 01:35:08;;;;;;;14.07;8.48;;;9.40;93.10;;;;;;5054209;28;20116;-72
2021/05/15 01:37:34;;;;;;;11.23;7.57;;;9.40;93.10;;;;;;5055149;28;20049;-72
2021/05/15 01:40:02;;;;;;;12.93;8.02;;;9.40;93.00;;;;;;5036809;28;20072;-72
2021/05/15 01:42:28;;;;;;;13.10;7.65;;;9.40;93.20;;;;;;5036728;28;20052;-72
2021/05/15 01:44:54;;;;;;;13.43;7.90;;;9.40;93.20;;;;;;5054550;28;20029;-72
2021/05/15 01:47:19;;;;;;;10.63;7.93;;;9.40;93.20;;;;;;5054489;28;20043;-72
2021/05/15 01:49:48;;;;;;;12.45;7.65;;;9.40;93.30;;;;;;5054160;28;20052;-72
2021/05/15 01:52:15;;;;;;;13.00;8.48;;;9.40;93.70;;;;;;5036311;28;20037;-72
2021/05/15 01:54:42;;;;;;;11.75;7.60;;;9.40;93.60;;;;;;5053881;28;20041;-72
2021/05/15 01:57:08;;;;;;;13.63;8.18;;;9.40;93.50;;;;;;5054572;28;20381;-72
2021/05/15 01:59:34;;;;;;;12.55;8.80;;;9.40;93.50;;;;;;5053874;28;20041;-72
2021/05/15 02:01:59;;;;;;;11.73;8.43;;;9.50;93.60;;;;;;5054234;28;20048;-72
2021/05/15 02:04:25;;;;;;;13.27;8.50;;;9.50;93.70;;;;;;5053705;28;20044;-72
2021/05/15 02:06:51;;;;;;;11.77;8.50;;;9.50;93.60;;;;;;5053931;28;20392;-72
2021/05/15 02:09:16;;;;;;;12.15;8.32;;;9.60;93.60;;;;;;5053746;28;20463;-72
2021/05/15 02:11:42;;;;;;;12.55;8.75;;;9.60;93.50;;;;;;5054371;28;20432;-72
2021/05/15 02:14:08;;;;;;;15.95;8.30;;;9.60;93.40;;;;;;5053824;28;20068;-72
2021/05/15 02:16:34;;;;;;;13.90;9.18;;;9.70;93.40;;;;;;5053589;28;20064;-72
2021/05/15 02:19:00;;;;;;;11.45;8.45;;;9.70;93.10;;;;;;5053963;28;20037;-72
2021/05/15 02:21:25;;;;;;;11.95;8.13;;;9.80;93.00;;;;;;5054104;28;20037;-72
2021/05/15 02:23:52;;;;;;;11.75;7.57;;;9.80;93.10;;;;;;5053582;28;20052;-72
2021/05/15 02:26:18;;;;;;;13.30;7.90;;;9.80;92.80;;;;;;5053162;28;20037;-72
2021/05/15 02:28:44;;;;;;;11.77;7.43;;;9.80;92.70;;;;;;5053462;28;20489;-72
2021/05/15 02:31:10;;;;;;;11.85;8.23;;;9.80;92.70;;;;;;5053381;28;20086;-72
2021/05/15 02:33:36;;;;;;;12.32;7.95;;;9.80;92.60;;;;;;5053816;28;20039;-72
2021/05/15 02:36:02;;;;;;;14.15;8.55;;;9.80;92.50;;;;;;5053146;28;20036;-72
2021/05/15 02:38:27;;;;;;;12.45;8.15;;;9.80;92.50;;;;;;5053402;28;20041;-72
2021/05/15 02:40:54;;;;;;;13.38;8.95;;;9.80;92.50;;;;;;5053212;28;20045;-72
2021/05/15 02:43:20;;;;;;;15.73;9.45;;;9.80;92.60;;;;;;5053274;28;20485;-72
2021/05/15 02:45:46;;;;;;;16.50;8.93;;;9.80;92.70;;;;;;5053236;28;20378;-72
2021/05/15 02:48:16;;;;;;;15.48;10.68;;;9.80;92.60;;;;;;5053065;28;20036;-72
2021/05/15 02:50:48;;;;;;;15.68;9.07;;;9.80;92.60;;;;;;5053084;28;20563;-72
2021/05/15 02:53:14;;;;;;;16.60;9.77;;;9.80;92.60;;;;;;5053838;28;20128;-72
2021/05/15 02:55:41;;;;;;;15.35;9.65;;;9.80;92.70;;;;;;5053068;28;20485;-72
2021/05/15 02:58:06;;;;;;;14.38;9.73;;;9.70;92.70;;;;;;5053017;28;20033;-72
2021/05/15 03:00:32;;;;;;;19.77;9.93;;;9.70;92.90;;;;;;5053104;28;20041;-72
2021/05/15 03:02:58;;;;;;;18.02;9.50;;;9.70;92.90;;;;;;5053058;28;20041;-72
2021/05/15 03:05:26;;;;;;;18.48;9.98;;;9.70;93.00;;;;;;5052995;28;20492;-72
2021/05/15 03:07:52;;;;;;;15.88;10.18;;;9.70;93.20;;;;;;5052979;28;20039;-72
2021/05/15 03:10:22;;;;;;;15.63;9.85;;;9.60;93.30;;;;;;5052927;28;20037;-72
2021/05/15 03:12:48;;;;;;;16.95;9.70;;;9.60;93.40;;;;;;5052446;28;20028;-72
2021/05/15 03:15:14;;;;;;;16.08;9.95;;;9.70;93.50;;;;;;5053280;28;20119;-72
2021/05/15 03:17:40;;;;;;;20.52;12.45;;;9.70;93.50;;;;;;5057042;28;20048;-72
2021/05/15 03:20:09;;;;;;;19.48;11.07;;;9.70;93.50;;;;;;5057562;28;20045;-72
2021/05/15 03:22:35;;;;;;;19.20;11.38;;;9.60;93.60;;;;;;5057138;28;20037;-72
2021/05/15 03:25:03;;;;;;;19.88;12.48;;;9.60;93.80;;;;;;5056678;28;20048;-72
2021/05/15 03:27:29;;;;;;;23.83;14.15;;;9.60;94.10;;;;;;5057246;28;20040;-72
2021/05/15 03:29:56;;;;;;;20.35;12.15;;;9.50;94.20;;;;;;5056944;28;20091;-72
2021/05/15 03:32:22;;;;;;;23.30;12.52;;;9.50;94.30;;;;;;5057311;28;20074;-72
2021/05/15 03:34:48;;;;;;;24.80;13.70;;;9.40;94.40;;;;;;5038710;28;20036;-72
2021/05/15 03:37:13;;;;;;;20.75;12.73;;;9.40;94.60;;;;;;5056656;28;20044;-72
2021/05/15 03:39:42;;;;;;;21.55;12.25;;;9.30;94.80;;;;;;5056812;28;20036;-72
2021/05/15 03:42:08;;;;;;;21.17;13.48;;;9.30;94.80;;;;;;5056901;28;20048;-72
2021/05/15 03:44:34;;;;;;;20.55;13.15;;;9.30;94.90;;;;;;5056637;28;20119;-72
2021/05/15 03:47:00;;;;;;;22.13;13.32;;;9.30;95.00;;;;;;5056424;28;20512;-72
2021/05/15 03:49:26;;;;;;;22.80;13.50;;;9.30;95.20;;;;;;5055923;28;20470;-72
2021/05/15 03:51:53;;;;;;;22.30;14.15;;;9.30;95.20;;;;;;5055140;28;20037;-72
2021/05/15 03:54:20;;;;;;;23.67;13.65;;;9.30;95.30;;;;;;5037334;28;20041;-72
2021/05/15 03:56:45;;;;;;;23.35;13.52;;;9.30;95.30;;;;;;5055119;28;20048;-72
2021/05/15 03:59:11;;;;;;;27.70;13.38;;;9.30;95.30;;;;;;5055671;28;20045;-72
2021/05/15 04:01:37;;;;;;;24.20;13.27;;;9.30;95.30;;;;;;5055379;28;20404;-72
2021/05/15 04:04:03;;;;;;;23.48;13.50;;;9.40;95.30;;;;;;5055096;28;20041;-72
2021/05/15 04:06:30;;;;;;;25.55;14.57;;;9.40;95.30;;;;;;5054593;28;20044;-72
2021/05/15 04:08:56;;;;;;;28.65;14.35;;;9.40;95.40;;;;;;5055449;28;20465;-72
2021/05/15 04:11:21;;;;;;;28.52;16.75;;;9.40;95.30;;;;;;5054769;28;20048;-72
2021/05/15 04:13:55;;;;;;;33.17;17.15;;;9.50;95.30;;;;;;5055252;28;20044;-72
2021/05/15 04:18:47;;;;;;;33.45;16.70;;;9.40;95.30;;;;;;5054679;28;20515;-72
2021/05/15 04:21:13;;;;;;;33.08;17.45;;;9.40;95.20;;;;;;5054700;28;20040;-72
2021/05/15 04:23:39;;;;;;;32.20;18.38;;;9.40;95.30;;;;;;5054612;28;20059;-72
2021/05/15 04:26:05;;;;;;;30.80;15.93;;;9.40;95.30;;;;;;5054226;28;20048;-72
2021/05/15 04:28:32;;;;;;;33.67;16.50;;;9.50;95.50;;;;;;5055407;28;20063;-72
2021/05/15 04:30:58;;;;;;;28.08;15.00;;;9.50;95.40;;;;;;5055246;28;20041;-72
2021/05/15 04:33:24;;;;;;;26.38;16.23;;;9.50;95.40;;;;;;5054895;28;20052;-72
2021/05/15 04:35:52;;;;;;;27.75;15.02;;;9.50;95.40;;;;;;5053982;28;20040;-72
2021/05/15 04:38:17;;;;;;;27.85;14.80;;;9.50;95.30;;;;;;5054609;28;20037;-72
2021/05/15 04:40:44;;;;;;;25.70;15.20;;;9.40;95.30;;;;;;5054739;28;20045;-72
2021/05/15 04:43:09;;;;;;;25.95;14.85;;;9.50;95.20;;;;;;5054953;28;20116;-72
2021/05/15 04:45:35;;;;;;;24.85;14.90;;;9.40;95.20;;;;;;5054238;28;20080;-72
2021/05/15 04:48:01;;;;;;;23.40;13.68;;;9.40;95.20;;;;;;5053965;28;20033;-72
2021/05/15 04:50:27;;;;;;;28.10;14.73;;;9.40;95.30;;;;;;5035932;28;551722;-72
2021/05/15 04:52:52;;;;;;;26.13;15.38;;;9.40;95.30;;;;;;5055617;28;20040;-72
2021/05/15 04:55:18;;;;;;;21.85;12.80;;;9.40;95.10;;;;;;5055233;28;20037;-72
2021/05/15 04:57:45;;;;;;;27.92;14.30;;;9.50;95.10;;;;;;5055698;28;20432;-72
2021/05/15 05:00:11;;;;;;;24.52;13.85;;;9.40;95.00;;;;;;5055223;28;20037;-72
2021/05/15 05:02:37;;;;;;;24.75;14.55;;;9.50;94.90;;;;;;5055870;28;20456;-72
2021/05/15 05:05:03;;;;;;;22.92;13.82;;;9.50;94.90;;;;;;5055152;28;20068;-72
2021/05/15 05:07:30;;;;;;;21.90;13.68;;;9.60;94.80;;;;;;5054990;28;20037;-72
2021/05/15 05:09:55;;;;;;;24.63;13.38;;;9.60;94.90;;;;;;5055132;28;20048;-72
2021/05/15 05:12:21;;;;;;;24.17;13.82;;;9.70;94.80;;;;;;5055393;28;20033;-72
2021/05/15 05:14:47;;;;;;;23.90;13.40;;;9.80;94.90;;;;;;5055083;28;20037;-72
2021/05/15 05:17:12;;;;;;;25.92;14.48;;;9.70;94.90;;;;;;5055322;28;20440;-72
2021/05/15 05:19:38;;;;;;;23.67;13.95;;;9.70;94.80;;;;;;5054928;28;20045;-72
2021/05/15 05:22:04;;;;;;;23.73;13.40;;;9.80;94.90;;;;;;5054790;28;20045;-72
2021/05/15 05:24:30;;;;;;;24.27;13.38;;;9.80;94.80;;;;;;5054359;28;20085;-72
2021/05/15 05:26:59;;;;;;;22.63;13.48;;;9.80;94.80;;;;;;5054788;28;20386;-72
2021/05/15 05:29:25;;;;;;;24.95;13.85;;;9.90;94.80;;;;;;5055040;28;20444;-72
2021/05/15 05:31:52;;;;;;;25.50;12.82;;;9.90;94.80;;;;;;5055228;28;20190;-72
2021/05/15 05:34:19;;;;;;;23.65;13.50;;;9.90;94.80;;;;;;5054337;28;20227;-72
2021/05/15 05:36:45;;;;;;;28.38;13.13;;;9.90;94.80;;;;;;5036431;28;20115;-72
2021/05/15 05:39:15;;;;;;;26.25;13.93;;;9.90;94.70;;;;;;5053718;28;20110;-72
2021/05/15 05:41:40;;;;;;;20.25;13.57;;;9.90;94.70;;;;;;5054539;28;20454;-72
2021/05/15 05:44:06;;;;;;;21.40;13.48;;;9.90;94.70;;;;;;5054951;28;20037;-72
2021/05/15 05:46:32;;;;;;;19.15;11.85;;;10.00;94.70;;;;;;5054076;28;20401;-72
2021/05/15 05:48:58;;;;;;;20.25;12.52;;;10.00;94.70;;;;;;5054235;28;20041;-72
2021/05/15 05:51:24;;;;;;;20.58;12.73;;;10.00;94.70;;;;;;5054535;28;20124;-72
2021/05/15 05:53:50;;;;;;;19.52;12.10;;;10.10;94.60;;;;;;5054249;28;20541;-72
2021/05/15 05:56:17;;;;;;;21.73;12.85;;;10.10;94.50;;;;;;5053841;28;20033;-72
2021/05/15 05:58:45;;;;;;;21.00;11.98;;;10.10;94.40;;;;;;5054578;28;20056;-72
2021/05/15 06:01:12;;;;;;;20.95;12.05;;;10.10;94.40;;;;;;5053962;28;20037;-72
2021/05/15 06:03:37;;;;;;;22.38;12.73;;;10.10;94.30;;;;;;5054216;28;20075;-72
2021/05/15 06:06:03;;;;;;;23.10;13.65;;;10.10;94.00;;;;;;5053889;28;20576;-72
2021/05/15 06:08:29;;;;;;;22.08;12.43;;;10.10;93.90;;;;;;5054430;28;20377;-72
2021/05/15 06:10:54;;;;;;;20.60;13.35;;;10.10;93.90;;;;;;5053799;28;20425;-72
2021/05/15 06:13:20;;;;;;;22.25;13.27;;;10.20;93.80;;;;;;5054030;28;20108;-72
2021/05/15 06:15:46;;;;;;;24.50;13.25;;;10.20;93.80;;;;;;5035896;28;20060;-72
2021/05/15 06:18:12;;;;;;;26.02;13.05;;;10.30;93.80;;;;;;5053893;28;20487;-72
2021/05/15 06:20:38;;;;;;;23.98;13.23;;;10.30;93.40;;;;;;5053567;28;20041;-72
2021/05/15 06:23:04;;;;;;;20.67;12.32;;;10.20;93.30;;;;;;5053568;28;20049;-72
2021/05/15 06:25:29;;;;;;;23.95;13.68;;;10.20;93.40;;;;;;5053486;28;20033;-72
2021/05/15 06:27:56;;;;;;;21.30;12.50;;;10.30;93.60;;;;;;5053581;28;20048;-72
2021/05/15 06:30:22;;;;;;;20.52;12.20;;;10.30;93.60;;;;;;5053683;28;20424;-72
2021/05/15 06:32:48;;;;;;;24.38;12.95;;;10.40;93.30;;;;;;5053676;28;20033;-72
2021/05/15 06:35:14;;;;;;;21.45;12.13;;;10.50;93.30;;;;;;5053122;28;20102;-72
2021/05/15 06:37:40;;;;;;;19.35;11.80;;;10.80;92.60;;;;;;5053760;28;20033;-72
2021/05/15 06:40:08;;;;;;;25.35;13.25;;;10.90;92.40;;;;;;5053560;28;20059;-72
2021/05/15 06:42:34;;;;;;;22.77;12.55;;;10.90;92.30;;;;;;5053963;28;20512;-72
2021/05/15 06:45:00;;;;;;;20.35;12.73;;;11.00;92.30;;;;;;5053117;28;20033;-72
2021/05/15 06:47:26;;;;;;;22.85;12.57;;;11.10;92.10;;;;;;5053427;28;20043;-72
2021/05/15 06:49:51;;;;;;;23.73;11.55;;;11.30;92.00;;;;;;5052980;28;20040;-72
2021/05/15 06:52:17;;;;;;;19.20;12.35;;;11.50;91.70;;;;;;5053318;28;20135;-72
2021/05/15 06:54:46;;;;;;;22.98;12.68;;;11.50;91.50;;;;;;5053554;28;20037;-72
2021/05/15 06:57:12;;;;;;;22.30;12.18;;;11.60;91.50;;;;;;5053394;28;20041;-72
2021/05/15 06:59:37;;;;;;;19.60;11.30;;;11.70;91.00;;;;;;5053185;28;20384;-72
2021/05/15 07:02:03;;;;;;;22.65;11.82;;;11.80;90.30;;;;;;5053439;28;20098;-72
2021/05/15 07:04:29;;;;;;;19.60;12.30;;;12.00;90.80;;;;;;5053284;28;20481;-71
2021/05/15 07:06:55;;;;;;;20.50;11.90;;;12.00;90.70;;;;;;5053188;28;20075;-71
2021/05/15 07:09:21;;;;;;;18.05;11.55;;;12.00;90.70;;;;;;5053056;28;20068;-71
2021/05/15 07:11:49;;;;;;;18.83;12.05;;;11.80;90.60;;;;;;5052941;28;20094;-71
2021/05/15 07:14:18;;;;;;;20.42;12.48;;;11.80;90.70;;;;;;5052977;28;20052;-72
2021/05/15 07:16:44;;;;;;;21.83;12.05;;;11.70;90.90;;;;;;5052744;28;20555;-71
2021/05/15 07:19:10;;;;;;;17.15;11.20;;;11.70;91.10;;;;;;5052981;28;20473;-72
2021/05/15 07:21:36;;;;;;;19.30;12.20;;;11.50;90.90;;;;;;5052808;28;20044;-71
2021/05/15 07:24:02;;;;;;;16.92;10.45;;;11.50;91.00;;;;;;5053038;28;20037;-72
2021/05/15 07:26:28;;;;;;;18.52;11.23;;;11.50;90.80;;;;;;5052601;28;20377;-72
2021/05/15 07:28:55;;;;;;;16.95;10.95;;;11.50;90.70;;;;;;5052820;28;20052;-71
2021/05/15 07:31:20;;;;;;;17.35;11.50;;;11.50;90.80;;;;;;5053129;28;20033;-70
2021/05/15 07:33:46;;;;;;;19.90;11.55;;;11.50;90.90;;;;;;5053056;28;20037;-71
2021/05/15 07:36:12;;;;;;;19.25;11.13;;;11.40;90.70;;;;;;5052416;28;20043;-71
2021/05/15 07:38:39;;;;;;;16.63;11.43;;;11.40;90.90;;;;;;5053356;28;20498;-71
2021/05/15 07:41:05;;;;;;;16.50;10.43;;;11.30;90.90;;;;;;5052831;28;20354;-71
2021/05/15 07:43:31;;;;;;;18.77;11.48;;;11.30;91.00;;;;;;5052889;28;20048;-71
2021/05/15 07:45:59;;;;;;;20.73;12.60;;;11.20;91.20;;;;;;5052816;28;20041;-71
2021/05/15 07:48:58;;;;;;;21.55;12.95;;;11.20;91.60;;;;;;5052988;28;20048;-71
2021/05/15 07:51:22;;;;;;;18.40;11.27;;;11.10;91.70;;;;;;5048784;28;20151;-71
2021/05/15 07:53:53;;;;;;;22.50;12.35;;;11.10;91.80;;;;;;5052867;28;20060;-71
2021/05/15 07:56:18;;;;;;;20.02;11.43;;;11.10;92.10;;;;;;5052540;28;20041;-71
2021/05/15 07:58:44;;;;;;;22.52;12.95;;;11.20;91.90;;;;;;5053045;28;20543;-71
2021/05/15 08:01:10;;;;;;;21.50;12.40;;;11.10;92.00;;;;;;5053053;28;20040;-71
2021/05/15 08:03:36;;;;;;;20.35;12.95;;;11.20;92.10;;;;;;5056844;28;20045;-71
2021/05/15 08:06:03;;;;;;;22.23;12.88;;;11.20;91.90;;;;;;5055961;28;20079;-71
2021/05/15 08:08:28;;;;;;;23.05;12.68;;;11.10;91.80;;;;;;5056754;28;20524;-71
2021/05/15 08:10:54;;;;;;;21.33;13.18;;;11.20;91.80;;;;;;5056335;28;20045;-71
2021/05/15 08:13:20;;;;;;;16.70;11.52;;;11.20;91.70;;;;;;5056101;28;20471;-71
2021/05/15 08:15:46;;;;;;;21.73;13.02;;;11.20;91.80;;;;;;5055936;28;20120;-71
2021/05/15 08:18:12;;;;;;;23.90;13.68;;;11.30;91.50;;;;;;5056276;28;20089;-71
2021/05/15 08:20:39;;;;;;;20.17;12.63;;;11.30;91.30;;;;;;5055777;28;20078;-71
2021/05/15 08:23:05;;;;;;;20.13;12.57;;;11.30;91.30;;;;;;5056219;28;20099;-71
2021/05/15 08:25:30;;;;;;;23.05;13.15;;;11.30;91.30;;;;;;5056110;28;20461;-71
2021/05/15 08:27:58;;;;;;;19.60;12.73;;;11.40;91.30;;;;;;5055816;28;20044;-71
2021/05/15 08:30:28;;;;;;;21.85;12.23;;;11.40;91.40;;;;;;5055958;28;20048;-72
2021/05/15 08:32:55;;;;;;;21.23;12.57;;;11.40;91.90;;;;;;5055687;28;20504;-70
2021/05/15 08:35:23;;;;;;;21.83;12.88;;;11.50;91.40;;;;;;5055309;28;20041;-71
2021/05/15 08:37:49;;;;;;;27.17;14.25;;;11.50;91.30;;;;;;5055762;28;20049;-71
2021/05/15 08:40:15;;;;;;;25.67;14.63;;;11.40;91.20;;;;;;5055516;28;20041;-71
2021/05/15 08:42:42;;;;;;;22.33;14.18;;;11.40;91.50;;;;;;5055633;28;20499;-70
2021/05/15 08:45:11;;;;;;;22.35;12.90;;;11.40;91.60;;;;;;5055259;28;20039;-71
2021/05/15 08:47:38;;;;;;;26.55;15.48;;;11.50;91.80;;;;;;5038057;28;20041;-71
2021/05/15 08:50:09;;;;;;;20.70;13.40;;;11.50;91.60;;;;;;5055458;28;20052;-71
2021/05/15 08:52:39;;;;;;;21.35;14.07;;;11.50;91.40;;;;;;5055972;28;20115;-71
2021/05/15 08:55:21;;;;;;;24.65;13.98;;;11.60;91.40;;;;;;5054905;28;20044;-71
2021/05/15 08:57:47;;;;;;;24.20;14.48;;;11.70;91.40;;;;;;5055312;28;20090;-70
2021/05/15 09:00:18;;;;;;;23.02;13.38;;;11.70;91.30;;;;;;5055313;28;20129;-70
2021/05/15 09:02:50;;;;;;;23.13;14.13;;;11.80;91.30;;;;;;5055360;28;20041;-70
2021/05/15 09:05:17;;;;;;;26.23;15.70;;;11.80;91.50;;;;;;5055169;28;20095;-70
2021/05/15 09:08:12;;;;;;;21.67;14.15;;;11.90;91.50;;;;;;5055655;28;20474;-70
2021/05/15 09:10:40;;;;;;;27.33;16.15;;;11.90;91.10;;;;;;5038297;28;20501;-70
2021/05/15 09:13:20;;;;;;;30.55;16.13;;;12.00;91.10;;;;;;5054171;28;20053;-70
2021/05/15 09:15:49;;;;;;;30.20;15.88;;;12.00;91.00;;;;;;5054779;28;20065;-70
2021/05/15 09:18:40;;;;;;;29.35;16.42;;;12.00;91.60;;;;;;5054822;28;20041;-70
2021/05/15 09:21:09;;;;;;;28.83;16.65;;;12.00;91.30;;;;;;5045272;28;20059;-70
2021/05/15 09:23:40;;;;;;;32.55;18.48;;;12.00;91.60;;;;;;5055287;28;20086;-71
2021/05/15 09:26:11;;;;;;;33.55;18.98;;;12.00;91.70;;;;;;5054609;28;20037;-71
2021/05/15 09:28:48;;;;;;;36.67;20.83;;;11.90;91.60;;;;;;5054634;28;20037;-71
2021/05/15 09:31:21;;;;;;;36.00;19.83;;;11.90;91.80;;;;;;5055248;28;20432;-71
2021/05/15 09:33:54;;;;;;;37.00;20.75;;;11.90;91.80;;;;;;5054844;28;20048;-70
2021/05/15 09:36:25;;;;;;;42.42;23.98;;;11.80;91.90;;;;;;5054184;28;20048;-70
2021/05/15 09:39:03;;;;;;;40.67;22.83;;;11.80;91.90;;;;;;5037435;28;20108;-70
2021/05/15 09:41:32;;;;;;;46.22;23.30;;;11.90;92.20;;;;;;5054270;28;20045;-70
2021/05/15 09:43:58;;;;;;;46.33;22.48;;;11.90;92.30;;;;;;5054431;28;20103;-70
2021/05/15 09:46:28;;;;;;;39.75;22.55;;;11.90;92.40;;;;;;5053869;28;20037;-71
2021/05/15 09:48:55;;;;;;;35.35;20.05;;;11.90;92.50;;;;;;5036242;28;20040;-70
2021/05/15 09:51:21;;;;;;;40.53;21.65;;;12.00;92.40;;;;;;5054665;28;20109;-70
2021/05/15 09:53:47;;;;;;;40.30;21.90;;;12.10;92.60;;;;;;5054878;28;20033;-70
2021/05/15 09:56:13;;;;;;;42.88;21.83;;;12.20;92.40;;;;;;5053607;28;20041;-69
2021/05/15 09:58:42;;;;;;;37.60;20.98;;;12.30;92.60;;;;;;5054313;28;20047;-69
2021/05/15 10:01:08;;;;;;;47.65;22.52;;;12.60;92.20;;;;;;5054120;28;20037;-68
2021/05/15 10:03:34;;;;;;;44.55;22.58;;;12.70;91.80;;;;;;5054172;28;20171;-68
2021/05/15 10:06:05;;;;;;;44.10;23.33;;;12.80;91.40;;;;;;5053957;28;20068;-68
2021/05/15 10:08:32;;;;;;;42.92;22.48;;;12.90;91.20;;;;;;5053932;28;20037;-68
2021/05/15 10:10:59;;;;;;;39.22;22.80;;;13.00;91.10;;;;;;5054016;28;20045;-68
2021/05/15 10:13:25;;;;;;;44.95;24.15;;;13.20;91.30;;;;;;5054185;28;20036;-68
2021/05/15 10:15:52;;;;;;;42.22;23.40;;;13.10;90.80;;;;;;5035928;28;20089;-68
2021/05/15 10:18:18;;;;;;;40.47;22.63;;;13.20;90.50;;;;;;5053662;28;20044;-68
2021/05/15 10:20:45;;;;;;;37.45;21.75;;;13.10;90.50;;;;;;5053555;28;20028;-68
2021/05/15 10:23:16;;;;;;;41.80;22.25;;;13.40;90.60;;;;;;5053929;28;20051;-68
2021/05/15 10:25:42;;;;;;;39.03;21.73;;;13.50;90.50;;;;;;5035198;28;20060;-68
2021/05/15 10:28:08;;;;;;;40.38;22.95;;;13.50;90.50;;;;;;5053379;28;20473;-68
2021/05/15 10:30:34;;;;;;;39.22;23.10;;;13.40;90.30;;;;;;5053724;28;20072;-68
2021/05/15 10:33:02;;;;;;;42.97;25.80;;;13.60;90.40;;;;;;5053679;28;20437;-69
2021/05/15 10:35:30;;;;;;;40.42;22.88;;;13.70;90.40;;;;;;5053388;28;20064;-69
2021/05/15 10:38:04;;;;;;;35.42;22.63;;;13.80;90.00;;;;;;5053356;28;20049;-69
2021/05/15 10:40:40;;;;;;;39.55;22.60;;;13.90;89.60;;;;;;5053377;28;20099;-68
2021/05/15 10:43:06;;;;;;;35.75;21.83;;;13.80;90.10;;;;;;5053200;28;20037;-69
2021/05/15 10:45:35;;;;;;;38.13;22.02;;;13.80;89.60;;;;;;5053006;28;20032;-68
2021/05/15 10:48:12;;;;;;;36.58;22.67;;;13.80;89.90;;;;;;5035376;28;20075;-68
2021/05/15 10:50:50;;;;;;;39.13;23.15;;;13.80;89.60;;;;;;5053120;28;20059;-68
2021/05/15 10:53:25;;;;;;;36.38;23.35;;;13.70;89.60;;;;;;5053520;28;20092;-68
2021/05/15 10:56:17;;;;;;;40.42;24.50;;;13.70;90.00;;;;;;5035689;28;20041;-69
2021/05/15 10:58:51;;;;;;;39.05;24.45;;;13.70;90.10;;;;;;5053783;28;20037;-69
2021/05/15 11:01:19;;;;;;;36.58;23.40;;;13.80;90.20;;;;;;5053232;28;20485;-69
2021/05/15 11:03:46;;;;;;;39.20;23.42;;;13.80;90.20;;;;;;5053358;28;20496;-69
2021/05/15 11:06:15;;;;;;;36.20;23.88;;;13.80;90.20;;;;;;5053135;28;20070;-69
2021/05/15 11:08:41;;;;;;;35.38;22.60;;;13.90;90.00;;;;;;5053822;28;20037;-69
2021/05/15 11:11:10;;;;;;;40.15;23.92;;;14.00;90.00;;;;;;5035406;28;20119;-69
2021/05/15 11:13:50;;;;;;;36.17;22.38;;;14.10;89.70;;;;;;5053065;28;20041;-69
2021/05/15 11:16:17;;;;;;;36.08;22.80;;;14.10;88.90;;;;;;5052709;28;20037;-69
2021/05/15 11:18:43;;;;;;;34.72;23.98;;;14.00;89.40;;;;;;5052910;28;20064;-68
2021/05/15 11:21:09;;;;;;;37.05;23.50;;;14.00;89.40;;;;;;5053018;28;20084;-69
2021/05/15 11:23:47;;;;;;;33.00;23.63;;;14.00;89.50;;;;;;5053156;28;20041;-69
2021/05/15 11:26:17;;;;;;;38.45;24.13;;;14.00;89.60;;;;;;5052655;28;20099;-69
2021/05/15 11:28:43;;;;;;;34.42;22.85;;;14.00;89.70;;;;;;5053040;28;20036;-69
2021/05/15 11:31:10;;;;;;;34.17;23.48;;;14.00;89.70;;;;;;5053049;28;20512;-68
2021/05/15 11:33:37;;;;;;;33.60;23.30;;;14.00;89.70;;;;;;5052943;28;20041;-68
2021/05/15 11:36:03;;;;;;;36.58;23.35;;;14.00;90.10;;;;;;5052977;28;20064;-68
2021/05/15 11:38:31;;;;;;;35.15;23.27;;;14.00;90.10;;;;;;5057857;28;20123;-69
2021/05/15 11:41:02;;;;;;;40.40;26.30;;;14.10;90.00;;;;;;5038929;28;20124;-69
2021/05/15 11:43:29;;;;;;;38.85;23.90;;;14.00;90.00;;;;;;5038914;28;20045;-68
2021/05/15 11:45:56;;;;;;;35.95;23.30;;;14.00;90.10;;;;;;5056501;28;20041;-68
2021/05/15 11:48:24;;;;;;;38.10;25.08;;;14.00;90.00;;;;;;5056408;28;20037;-67
2021/05/15 11:51:10;;;;;;;36.03;23.85;;;13.80;90.60;;;;;;5056304;28;20075;-67
2021/05/15 11:53:54;;;;;;;34.83;22.10;;;13.80;90.20;;;;;;5056366;28;20047;-69
2021/05/15 11:56:22;;;;;;;34.30;23.77;;;13.80;90.50;;;;;;5035656;28;20037;-69
2021/05/15 11:58:49;;;;;;;47.05;25.42;;;13.70;91.20;;;;;;5036442;28;20041;-69
2021/05/15 12:01:17;;;;;;;38.92;23.75;;;13.60;91.50;;;;;;5036214;28;20128;-69
2021/05/15 12:03:43;;;;;;;40.95;25.05;;;13.70;91.90;;;;;;5018837;28;20552;-69
2021/05/15 12:06:13;;;;;;;42.28;24.73;;;13.80;91.20;;;;;;5035902;28;20132;-69
2021/05/15 12:08:40;;;;;;;36.40;23.88;;;14.00;90.80;;;;;;5036312;28;20045;-69
2021/05/15 12:11:05;;;;;;;32.90;23.05;;;14.10;90.90;;;;;;5036501;28;20041;-69
2021/05/15 12:13:31;;;;;;;33.75;22.98;;;14.20;90.70;;;;;;5036146;28;20117;-69
2021/05/15 12:15:57;;;;;;;36.88;23.67;;;14.40;90.30;;;;;;5036076;28;20069;-69
2021/05/15 12:18:23;;;;;;;35.55;24.05;;;14.60;89.30;;;;;;5036009;28;20496;-69
2021/05/15 12:20:49;;;;;;;34.65;23.83;;;14.70;88.70;;;;;;5035940;28;20041;-69
2021/05/15 12:23:21;;;;;;;34.00;23.20;;;14.80;88.10;;;;;;5036124;28;20044;-69
2021/05/15 12:26:00;;;;;;;35.47;23.38;;;14.80;87.60;;;;;;5035880;28;20037;-69
2021/05/15 12:28:31;;;;;;;36.08;23.77;;;14.80;87.20;;;;;;5036589;28;20041;-69
2021/05/15 12:30:58;;;;;;;36.60;23.02;;;14.70;87.80;;;;;;5035820;28;20069;-69
2021/05/15 12:33:25;;;;;;;33.85;22.52;;;14.70;87.60;;;;;;5036134;28;20419;-69
2021/05/15 12:36:06;;;;;;;34.90;23.13;;;14.80;87.80;;;;;;5035299;28;20034;-69
2021/05/15 12:38:42;;;;;;;30.48;22.60;;;14.90;88.90;;;;;;5036398;28;20124;-69